createdAt,value
2023-04-13T00:01:11.289Z,3.90
2023-04-13T00:03:39.137Z,3.00
2023-04-13T00:06:10.615Z,2.78
2023-04-13T00:08:37.647Z,2.63
2023-04-13T00:11:06.660Z,3.40
2023-04-13T00:13:40.798Z,3.20
2023-04-13T00:16:10.216Z,2.97
2023-04-13T00:18:37.332Z,4.20
2023-04-13T00:21:04.564Z,3.90
2023-04-13T00:23:34.384Z,3.55
2023-04-13T00:26:01.534Z,3.53
2023-04-13T00:28:29.929Z,4.30
2023-04-13T00:30:59.408Z,3.60
2023-04-13T00:33:26.628Z,3.85
2023-04-13T00:35:53.539Z,4.03
2023-04-13T00:38:20.402Z,3.58
2023-04-13T00:40:47.431Z,3.95
2023-04-13T00:43:14.947Z,4.45
2023-04-13T00:45:43.382Z,3.75
2023-04-13T00:48:13.480Z,4.35
2023-04-13T00:50:42.549Z,3.95
2023-04-13T00:53:13.656Z,3.85
2023-04-13T00:55:42.828Z,4.47
2023-04-13T00:58:10.610Z,4.45
2023-04-13T01:00:39.143Z,4.50
2023-04-13T01:03:06.837Z,4.28
2023-04-13T01:05:43.716Z,4.30
2023-04-13T01:08:58.074Z,3.72
2023-04-13T01:11:39.460Z,4.63
2023-04-13T01:14:15.330Z,4.60
2023-04-13T01:16:56.715Z,5.10
2023-04-13T01:19:56.858Z,5.03
2023-04-13T01:22:29.899Z,5.82
2023-04-13T01:25:22.543Z,5.88
2023-04-13T01:28:05.387Z,5.50
2023-04-13T01:30:36.087Z,6.15
2023-04-13T01:33:05.804Z,5.88
2023-04-13T01:35:35.074Z,5.30
2023-04-13T01:38:03.215Z,6.25
2023-04-13T01:40:33.132Z,6.15
2023-04-13T01:43:00.182Z,5.82
2023-04-13T01:45:47.696Z,6.43
2023-04-13T01:48:29.910Z,6.07
2023-04-13T01:51:25.376Z,7.03
2023-04-13T01:54:20.531Z,6.80
2023-04-13T01:56:48.877Z,7.10
2023-04-13T01:59:16.812Z,7.57
2023-04-13T02:01:44.680Z,7.38
2023-04-13T02:04:12.489Z,6.93
2023-04-13T02:06:42.405Z,7.82
2023-04-13T02:09:10.996Z,10.43
2023-04-13T02:11:38.532Z,17.58
2023-04-13T02:14:07.855Z,25.50
2023-04-13T02:16:35.272Z,27.45
2023-04-13T02:19:02.483Z,30.38
2023-04-13T02:21:30.544Z,26.90
2023-04-13T02:23:57.883Z,24.80
2023-04-13T02:26:26.293Z,22.50
2023-04-13T02:28:53.540Z,14.85
2023-04-13T02:31:23.305Z,11.68
2023-04-13T02:33:51.553Z,9.32
2023-04-13T02:36:19.295Z,7.95
2023-04-13T02:38:54.578Z,7.70
2023-04-13T02:41:29.629Z,6.85
2023-04-13T02:43:57.505Z,7.57
2023-04-13T02:46:28.398Z,7.03
2023-04-13T02:49:03.555Z,6.32
2023-04-13T02:51:36.308Z,6.63
2023-04-13T02:54:04.110Z,6.43
2023-04-13T02:56:36.137Z,6.07
2023-04-13T02:59:03.843Z,6.30
2023-04-13T03:01:31.480Z,6.20
2023-04-13T03:03:58.777Z,6.72
2023-04-13T03:06:28.185Z,6.88
2023-04-13T03:08:59.625Z,6.00
2023-04-13T03:11:28.089Z,7.40
2023-04-13T03:14:29.940Z,6.20
2023-04-13T03:17:08.450Z,7.03
2023-04-13T03:19:40.493Z,6.88
2023-04-13T03:22:08.280Z,6.90
2023-04-13T03:24:40.118Z,7.07
2023-04-13T03:27:08.767Z,6.65
2023-04-13T03:29:42.673Z,5.57
2023-04-13T03:32:14.024Z,7.05
2023-04-13T03:34:45.165Z,6.57
2023-04-13T03:37:14.042Z,6.25
2023-04-13T03:39:41.384Z,6.05
2023-04-13T03:42:12.049Z,5.53
2023-04-13T03:44:44.972Z,6.28
2023-04-13T03:47:12.795Z,5.53
2023-04-13T03:49:40.084Z,5.13
2023-04-13T03:52:07.003Z,5.38
2023-04-13T03:54:40.100Z,5.05
2023-04-13T03:57:07.474Z,5.28
2023-04-13T03:59:35.234Z,5.57
2023-04-13T04:02:04.029Z,5.60
2023-04-13T04:04:33.725Z,4.53
2023-04-13T04:07:00.866Z,5.30
2023-04-13T04:09:28.021Z,4.97
2023-04-13T04:11:56.610Z,5.22
2023-04-13T04:14:35.946Z,5.95
2023-04-13T04:17:11.405Z,4.82
2023-04-13T04:19:38.685Z,4.63
2023-04-13T04:22:09.158Z,5.53
2023-04-13T04:24:39.943Z,5.03
2023-04-13T04:27:07.623Z,4.68
2023-04-13T04:29:34.784Z,5.13
2023-04-13T04:32:19.998Z,5.78
2023-04-13T04:34:48.126Z,7.00
2023-04-13T04:37:21.384Z,6.90
2023-04-13T04:40:00.913Z,8.20
2023-04-13T04:42:28.027Z,8.07
2023-04-13T04:44:57.248Z,8.15
2023-04-13T04:47:30.635Z,7.85
2023-04-13T04:50:12.884Z,7.13
2023-04-13T04:52:42.343Z,6.38
2023-04-13T04:55:12.092Z,6.07
2023-04-13T04:57:41.301Z,6.32
2023-04-13T05:00:18.248Z,6.18
2023-04-13T05:03:07.468Z,6.32
2023-04-13T05:05:37.478Z,5.80
2023-04-13T05:08:09.273Z,6.20
2023-04-13T05:10:46.318Z,5.60
2023-04-13T05:13:13.430Z,6.30
2023-04-13T05:15:43.922Z,6.25
2023-04-13T05:18:13.031Z,5.90
2023-04-13T05:20:40.089Z,6.20
2023-04-13T05:23:09.696Z,6.07
2023-04-13T05:25:43.207Z,6.10
2023-04-13T05:28:17.751Z,6.63
2023-04-13T05:30:45.804Z,6.60
2023-04-13T05:33:12.795Z,6.35
2023-04-13T05:35:41.154Z,6.93
2023-04-13T05:38:09.360Z,6.82
2023-04-13T05:40:36.741Z,7.35
2023-04-13T05:43:05.187Z,7.22
2023-04-13T05:45:36.494Z,6.95
2023-04-13T05:48:07.719Z,7.50
2023-04-13T05:50:35.171Z,6.75
2023-04-13T05:53:02.901Z,6.28
2023-04-13T05:55:43.058Z,6.90
2023-04-13T05:58:11.054Z,7.78
2023-04-13T06:00:38.799Z,7.00
2023-04-13T06:03:11.328Z,6.65
2023-04-13T06:05:38.879Z,7.20
2023-04-13T06:08:05.902Z,6.40
2023-04-13T06:10:32.912Z,6.40
2023-04-13T06:13:00.103Z,6.57
2023-04-13T06:15:27.346Z,8.98
2023-04-13T06:17:54.657Z,7.63
2023-04-13T06:20:21.848Z,7.60
2023-04-13T06:22:49.925Z,7.97
2023-04-13T06:25:19.949Z,7.15
2023-04-13T06:27:49.740Z,7.03
2023-04-13T06:30:18.188Z,6.00
2023-04-13T06:32:47.181Z,6.65
2023-04-13T06:35:17.347Z,7.20
2023-04-13T06:37:47.286Z,6.55
2023-04-13T06:40:21.039Z,6.68
2023-04-13T06:42:57.784Z,6.03
2023-04-13T06:45:33.904Z,6.43
2023-04-13T06:48:07.056Z,5.90
2023-04-13T06:50:35.746Z,5.97
2023-04-13T06:53:04.391Z,5.07
2023-04-13T06:55:31.639Z,6.13
2023-04-13T06:57:59.141Z,5.63
2023-04-13T07:00:30.127Z,5.55
2023-04-13T07:03:00.249Z,5.10
2023-04-13T07:05:28.187Z,5.10
2023-04-13T07:08:00.599Z,4.35
2023-04-13T07:10:29.003Z,4.35
2023-04-13T07:12:59.175Z,4.70
2023-04-13T07:15:28.850Z,4.35
2023-04-13T07:17:55.971Z,4.53
2023-04-13T07:20:23.125Z,4.47
2023-04-13T07:22:51.375Z,4.35
2023-04-13T07:25:18.501Z,4.18
2023-04-13T07:27:46.164Z,3.95
2023-04-13T07:30:14.284Z,4.40
2023-04-13T07:32:45.260Z,4.20
2023-04-13T07:35:13.125Z,3.38
2023-04-13T07:37:42.479Z,3.75
2023-04-13T07:40:11.827Z,3.70
2023-04-13T07:42:40.796Z,3.63
2023-04-13T07:45:10.878Z,3.45
2023-04-13T07:47:38.489Z,3.40
2023-04-13T07:50:09.385Z,3.60
2023-04-13T07:52:37.468Z,2.83
2023-04-13T07:55:07.996Z,2.70
2023-04-13T07:57:39.808Z,3.03
2023-04-13T08:00:08.384Z,2.65
2023-04-13T08:02:44.273Z,2.30
2023-04-13T08:05:15.678Z,2.38
2023-04-13T08:07:46.459Z,2.33
2023-04-13T08:10:15.396Z,2.40
2023-04-13T08:12:43.098Z,2.30
2023-04-13T08:15:10.934Z,1.75
2023-04-13T08:17:38.291Z,2.25
2023-04-13T08:20:08.201Z,1.90
2023-04-13T08:22:36.727Z,2.10
2023-04-13T08:25:07.409Z,1.50
2023-04-13T08:27:35.371Z,1.65
2023-04-13T08:30:05.219Z,1.38
2023-04-13T08:32:42.350Z,1.67
2023-04-13T08:37:54.225Z,1.65
2023-04-13T08:40:22.776Z,1.48
2023-04-13T08:42:54.535Z,1.67
2023-04-13T08:45:22.337Z,1.42
2023-04-13T08:47:50.224Z,1.77
2023-04-13T08:50:21.175Z,2.10
2023-04-13T08:52:51.328Z,1.90
2023-04-13T08:55:18.482Z,1.85
2023-04-13T08:57:51.396Z,1.38
2023-04-13T09:00:21.727Z,1.30
2023-04-13T09:03:03.079Z,1.50
2023-04-13T09:05:38.851Z,1.27
2023-04-13T09:08:08.253Z,1.20
2023-04-13T09:10:38.208Z,1.00
2023-04-13T09:13:05.908Z,1.08
2023-04-13T09:15:33.258Z,1.33
2023-04-13T09:18:21.125Z,1.10
2023-04-13T09:21:00.439Z,1.00
2023-04-13T09:23:28.092Z,0.70
2023-04-13T09:26:08.844Z,1.15
2023-04-13T09:28:47.974Z,0.70
2023-04-13T09:31:15.695Z,0.90
2023-04-13T09:33:52.455Z,1.40
2023-04-13T09:38:58.773Z,0.88
2023-04-13T09:41:40.367Z,0.90
2023-04-13T09:44:20.611Z,1.05
2023-04-13T09:47:02.516Z,1.05
2023-04-13T09:49:41.881Z,0.75
2023-04-13T09:52:23.471Z,0.98
2023-04-13T09:54:57.170Z,0.85
2023-04-13T09:57:33.458Z,1.00
2023-04-13T10:00:01.617Z,0.90
2023-04-13T10:02:39.942Z,1.10
2023-04-13T10:05:10.165Z,0.88
2023-04-13T10:07:38.043Z,1.20
2023-04-13T10:10:05.690Z,1.00
2023-04-13T10:12:35.843Z,1.52
2023-04-13T10:15:22.815Z,1.00
2023-04-13T10:20:34.513Z,1.17
2023-04-13T10:23:04.142Z,1.00
2023-04-13T10:25:33.508Z,0.90
2023-04-13T10:28:02.062Z,0.85
2023-04-13T10:30:29.931Z,1.02
2023-04-13T10:33:05.707Z,0.88
2023-04-13T10:35:37.439Z,0.80
2023-04-13T10:38:05.273Z,0.80
2023-04-13T10:40:48.901Z,0.98
2023-04-13T10:43:45.499Z,1.05
2023-04-13T10:46:13.874Z,0.80
2023-04-13T10:48:41.957Z,1.20
2023-04-13T10:51:09.363Z,0.65
2023-04-13T10:53:36.857Z,1.00
2023-04-13T10:56:05.091Z,0.88
2023-04-13T10:58:33.166Z,0.70
2023-04-13T11:01:01.005Z,0.88
2023-04-13T11:03:29.280Z,0.90
2023-04-13T11:05:59.898Z,0.80
2023-04-13T11:08:27.954Z,0.90
2023-04-13T11:10:57.244Z,1.00
2023-04-13T11:13:31.087Z,0.90
2023-04-13T11:16:05.634Z,0.82
2023-04-13T11:18:33.276Z,0.80
2023-04-13T11:21:06.059Z,0.93
2023-04-13T11:23:36.345Z,0.80
2023-04-13T11:26:05.615Z,0.70
2023-04-13T11:28:42.573Z,0.52
2023-04-13T11:31:12.731Z,1.17
2023-04-13T11:33:40.909Z,0.90
2023-04-13T11:36:12.218Z,1.20
2023-04-13T11:38:42.317Z,0.85
2023-04-13T11:43:42.024Z,0.77
2023-04-13T11:46:13.922Z,1.02
2023-04-13T11:48:42.509Z,1.00
2023-04-13T11:51:11.811Z,1.15
2023-04-13T11:53:40.650Z,1.10
2023-04-13T11:56:08.600Z,0.80
2023-04-13T11:58:38.436Z,0.70
2023-04-13T12:03:55.663Z,1.13
2023-04-13T12:06:29.320Z,1.88
2023-04-13T12:09:10.963Z,2.25
2023-04-13T12:11:46.672Z,1.25
2023-04-13T12:19:27.200Z,0.82
2023-04-13T12:21:57.352Z,1.05
2023-04-13T12:24:40.313Z,0.90
2023-04-13T12:29:39.274Z,1.00
2023-04-13T12:32:14.846Z,1.00
2023-04-13T12:34:43.522Z,0.98
2023-04-13T12:37:12.036Z,1.30
2023-04-13T12:39:39.350Z,0.70
2023-04-13T12:42:06.736Z,0.80
2023-04-13T12:44:34.521Z,0.70
2023-04-13T12:47:24.375Z,0.60
2023-04-13T12:49:51.682Z,0.70
2023-04-13T12:52:18.648Z,1.02
2023-04-13T12:54:45.955Z,0.88
2023-04-13T12:57:17.150Z,0.90
2023-04-13T12:59:44.840Z,0.63
2023-04-13T13:02:12.014Z,0.80
2023-04-13T13:04:39.039Z,0.60
2023-04-13T13:07:06.411Z,0.80
2023-04-13T13:09:34.054Z,0.73
2023-04-13T13:12:02.608Z,0.60
2023-04-13T13:14:31.007Z,1.10
2023-04-13T13:16:58.433Z,1.05
2023-04-13T13:19:25.443Z,0.90
2023-04-13T13:21:52.680Z,0.70
2023-04-13T13:24:20.035Z,0.63
2023-04-13T13:29:24.029Z,0.90
2023-04-13T13:31:51.319Z,0.93
2023-04-13T13:34:18.784Z,0.90
2023-04-13T13:36:46.686Z,0.98
2023-04-13T13:39:13.702Z,1.13
2023-04-13T13:41:40.910Z,0.70
2023-04-13T13:44:08.345Z,1.02
2023-04-13T13:46:36.818Z,1.13
2023-04-13T13:49:06.737Z,0.90
2023-04-13T13:51:54.145Z,0.70
2023-04-13T13:54:24.099Z,0.95
2023-04-13T13:56:51.665Z,0.68
2023-04-13T13:59:19.117Z,0.80
2023-04-13T14:01:46.215Z,0.60
2023-04-13T14:04:14.050Z,0.80
2023-04-13T14:06:41.435Z,0.65
2023-04-13T14:09:08.819Z,0.70
2023-04-13T14:11:36.245Z,0.90
2023-04-13T14:14:18.147Z,0.90
2023-04-13T14:16:48.969Z,1.25
2023-04-13T14:19:18.148Z,0.65
2023-04-13T14:21:45.241Z,0.75
2023-04-13T14:24:12.613Z,0.90
2023-04-13T14:26:39.817Z,1.00
2023-04-13T14:29:09.066Z,0.60
2023-04-13T14:31:36.233Z,0.52
2023-04-13T14:34:03.839Z,0.70
2023-04-13T14:36:31.060Z,0.80
2023-04-13T14:39:00.300Z,1.00
2023-04-13T14:41:27.673Z,0.82
2023-04-13T14:43:54.609Z,0.60
2023-04-13T14:46:21.799Z,0.98
2023-04-13T14:48:48.851Z,0.93
2023-04-13T14:51:17.257Z,0.80
2023-04-13T14:53:44.657Z,0.60
2023-04-13T14:56:12.066Z,0.90
2023-04-13T14:58:39.280Z,0.77
2023-04-13T15:01:17.615Z,0.70
2023-04-13T15:03:46.313Z,1.00
2023-04-13T15:06:14.103Z,0.80
2023-04-13T15:08:41.068Z,0.60
2023-04-13T15:11:08.975Z,0.73
2023-04-13T15:13:38.258Z,0.93
2023-04-13T15:16:08.027Z,0.80
2023-04-13T15:18:35.335Z,0.80
2023-04-13T15:21:04.323Z,1.00
2023-04-13T15:23:32.545Z,1.05
2023-04-13T15:26:01.161Z,1.20
2023-04-13T15:28:28.426Z,0.70
2023-04-13T15:30:55.507Z,0.90
2023-04-13T15:33:22.936Z,0.68
2023-04-13T15:35:52.194Z,1.00
2023-04-13T15:38:19.241Z,0.73
2023-04-13T15:40:47.044Z,0.77
2023-04-13T15:43:14.055Z,1.30
2023-04-13T15:45:41.361Z,0.90
2023-04-13T15:48:08.405Z,0.93
2023-04-13T15:50:35.831Z,1.00
2023-04-13T15:53:03.007Z,0.80
2023-04-13T15:55:30.295Z,0.77
2023-04-13T15:57:57.370Z,1.50
2023-04-13T16:00:26.429Z,1.00
2023-04-13T16:02:53.876Z,1.08
2023-04-13T16:05:21.231Z,0.90
2023-04-13T16:07:48.862Z,2.17
2023-04-13T16:10:17.197Z,1.80
2023-04-13T16:12:45.533Z,1.67
2023-04-13T16:15:13.120Z,1.20
2023-04-13T16:17:43.990Z,0.90
2023-04-13T16:20:14.219Z,1.08
2023-04-13T16:22:43.154Z,0.65
2023-04-13T16:25:11.311Z,1.30
2023-04-13T16:27:39.835Z,1.48
2023-04-13T16:30:08.382Z,1.20
2023-04-13T16:32:35.766Z,1.30
2023-04-13T16:35:02.836Z,0.95
2023-04-13T16:37:29.714Z,0.88
2023-04-13T16:39:56.920Z,0.95
2023-04-13T16:42:24.002Z,0.93
2023-04-13T16:44:51.434Z,0.82
2023-04-13T16:47:21.179Z,1.67
2023-04-13T16:49:48.308Z,1.90
2023-04-13T16:52:15.368Z,1.40
2023-04-13T16:54:46.272Z,1.35
2023-04-13T16:57:13.655Z,1.23
2023-04-13T16:59:40.736Z,1.30
2023-04-13T17:02:15.311Z,1.08
2023-04-13T17:04:51.634Z,1.50
2023-04-13T17:07:18.538Z,1.13
2023-04-13T17:09:45.634Z,1.10
2023-04-13T17:12:12.627Z,1.00
2023-04-13T17:14:40.165Z,1.13
2023-04-13T17:17:07.150Z,1.33
2023-04-13T17:19:34.130Z,1.30
2023-04-13T17:22:01.231Z,1.30
2023-04-13T17:24:28.280Z,1.85
2023-04-13T17:26:55.245Z,1.60
2023-04-13T17:29:22.185Z,1.35
2023-04-13T17:31:49.303Z,1.25
2023-04-13T17:34:16.272Z,1.67
2023-04-13T17:36:43.315Z,0.93
2023-04-13T17:39:10.445Z,0.95
2023-04-13T17:41:37.705Z,1.02
2023-04-13T17:44:04.887Z,1.17
2023-04-13T17:46:32.116Z,1.42
2023-04-13T17:48:59.528Z,1.55
2023-04-13T17:51:26.817Z,1.50
2023-04-13T17:53:53.909Z,1.77
2023-04-13T17:56:21.180Z,2.13
2023-04-13T17:58:48.235Z,1.42
2023-04-13T18:01:15.409Z,1.40
2023-04-13T18:03:42.880Z,1.17
2023-04-13T18:06:10.520Z,1.30
2023-04-13T18:08:37.605Z,1.27
2023-04-13T18:11:04.675Z,10.63
2023-04-13T18:13:31.798Z,7.53
2023-04-13T18:15:58.825Z,5.75
2023-04-13T18:18:26.654Z,3.97
2023-04-13T18:20:53.685Z,2.95
2023-04-13T18:23:21.690Z,2.55
2023-04-13T18:25:52.367Z,1.70
2023-04-13T18:28:19.466Z,2.17
2023-04-13T18:30:46.520Z,2.10
2023-04-13T18:33:13.598Z,3.13
2023-04-13T18:35:46.180Z,3.38
2023-04-13T18:38:13.462Z,2.95
2023-04-13T18:40:40.768Z,2.92
2023-04-13T18:43:07.809Z,3.00
2023-04-13T18:45:35.056Z,4.50
2023-04-13T18:48:02.566Z,3.88
2023-04-13T18:50:29.484Z,3.80
2023-04-13T18:52:56.603Z,3.40
2023-04-13T18:55:25.941Z,4.78
2023-04-13T18:57:53.014Z,6.72
2023-04-13T19:00:20.393Z,5.78
2023-04-13T19:02:54.210Z,9.63
2023-04-13T19:05:21.405Z,8.88
2023-04-13T19:08:03.654Z,5.55
2023-04-13T19:10:31.527Z,5.40
2023-04-13T19:12:58.570Z,4.40
2023-04-13T19:15:26.033Z,3.75
2023-04-13T19:17:53.254Z,3.67
2023-04-13T19:20:23.577Z,4.13
2023-04-13T19:22:51.640Z,3.92
2023-04-13T19:25:18.636Z,3.95
2023-04-13T19:27:46.790Z,3.58
2023-04-13T19:30:16.108Z,4.40
2023-04-13T19:32:46.713Z,3.70
2023-04-13T19:35:14.317Z,4.32
2023-04-13T19:37:41.735Z,5.45
2023-04-13T19:40:10.288Z,4.43
2023-04-13T19:42:37.638Z,4.55
2023-04-13T19:45:05.244Z,4.55
2023-04-13T19:47:32.225Z,4.63
2023-04-13T19:50:00.371Z,4.90
2023-04-13T19:52:27.727Z,5.03
2023-04-13T19:54:55.096Z,5.60
2023-04-13T19:57:22.859Z,4.47
2023-04-13T19:59:49.873Z,4.50
2023-04-13T20:02:16.945Z,4.68
2023-04-13T20:04:45.701Z,5.53
2023-04-13T20:07:12.883Z,6.50
2023-04-13T20:09:39.859Z,5.68
2023-04-13T20:12:07.561Z,6.80
2023-04-13T20:14:34.746Z,5.85
2023-04-13T20:17:03.137Z,6.82
2023-04-13T20:19:30.433Z,5.32
2023-04-13T20:21:57.728Z,9.98
2023-04-13T20:24:24.723Z,9.30
2023-04-13T20:26:51.704Z,7.28
2023-04-13T20:29:21.794Z,7.28
2023-04-13T20:31:49.144Z,7.47
2023-04-13T20:34:16.437Z,6.93
2023-04-13T20:36:43.527Z,7.22
2023-04-13T20:39:11.004Z,6.57
2023-04-13T20:41:38.912Z,6.50
2023-04-13T20:44:09.911Z,6.90
2023-04-13T20:46:41.957Z,6.68
2023-04-13T20:49:11.849Z,7.10
2023-04-13T20:51:39.667Z,6.20
2023-04-13T20:54:06.801Z,5.43
2023-04-13T20:56:33.719Z,5.47
2023-04-13T20:59:01.875Z,6.38
2023-04-13T21:01:30.187Z,6.10
2023-04-13T21:03:57.480Z,6.40
2023-04-13T21:06:24.571Z,6.50
2023-04-13T21:08:52.867Z,10.38
2023-04-13T21:11:20.005Z,8.20
2023-04-13T21:13:47.216Z,9.73
2023-04-13T21:16:14.317Z,9.25
2023-04-13T21:18:41.921Z,8.00
2023-04-13T21:21:09.216Z,9.52
2023-04-13T21:23:37.279Z,7.53
2023-04-13T21:26:04.973Z,6.90
2023-04-13T21:28:32.150Z,6.63
2023-04-13T21:30:59.293Z,5.57
2023-04-13T21:33:26.350Z,6.05
2023-04-13T21:35:53.296Z,5.97
2023-04-13T21:38:20.409Z,6.35
2023-04-13T21:40:47.482Z,7.10
2023-04-13T21:43:14.868Z,6.65
2023-04-13T21:45:41.972Z,6.13
2023-04-13T21:48:08.919Z,6.32
2023-04-13T21:50:35.858Z,5.43
2023-04-13T21:53:02.869Z,5.78
2023-04-13T21:55:29.966Z,5.35
2023-04-13T21:57:57.070Z,4.90
2023-04-13T22:00:24.273Z,5.78
2023-04-13T22:02:52.277Z,6.50
2023-04-13T22:05:19.471Z,5.70
2023-04-13T22:07:46.588Z,5.35
2023-04-13T22:10:14.205Z,5.10
2023-04-13T22:12:41.394Z,5.22
2023-04-13T22:15:08.877Z,6.45
2023-04-13T22:17:36.780Z,5.55
2023-04-13T22:20:04.572Z,6.00
2023-04-13T22:22:31.609Z,5.78
2023-04-13T22:24:58.707Z,5.25
2023-04-13T22:27:26.561Z,6.03
2023-04-13T22:29:56.631Z,5.68
2023-04-13T22:32:23.963Z,6.32
2023-04-13T22:34:50.920Z,6.45
2023-04-13T22:37:18.086Z,6.30
2023-04-13T22:39:45.139Z,6.68
2023-04-13T22:42:12.057Z,6.15
2023-04-13T22:44:39.176Z,6.25
2023-04-13T22:47:06.518Z,6.57
2023-04-13T22:49:33.580Z,6.68
2023-04-13T22:52:00.581Z,7.47
2023-04-13T22:54:27.639Z,8.23
2023-04-13T22:56:54.568Z,7.15
2023-04-13T22:59:21.559Z,7.28
2023-04-13T23:01:48.929Z,6.78
2023-04-13T23:04:16.577Z,5.90
2023-04-13T23:06:43.884Z,6.35
2023-04-13T23:09:11.001Z,6.32
2023-04-13T23:11:38.341Z,6.30
2023-04-13T23:14:06.586Z,6.43
2023-04-13T23:16:34.502Z,6.72
2023-04-13T23:19:01.877Z,7.45
2023-04-13T23:21:29.575Z,7.18
2023-04-13T23:23:56.637Z,7.13
2023-04-13T23:26:23.849Z,7.50
2023-04-13T23:28:50.820Z,6.40
2023-04-13T23:31:17.931Z,7.32
2023-04-13T23:33:44.965Z,7.38
2023-04-13T23:36:12.011Z,8.05
2023-04-13T23:38:39.063Z,6.75
2023-04-13T23:41:06.196Z,7.15
2023-04-13T23:43:33.096Z,6.88
2023-04-13T23:46:00.444Z,7.30
2023-04-13T23:48:27.629Z,6.95
2023-04-13T23:50:54.946Z,6.80
2023-04-13T23:53:21.928Z,6.30
2023-04-13T23:55:48.950Z,6.72
2023-04-13T23:58:18.881Z,6.80
